sensor_id;sensor_type;location;lat;lon;timestamp;P1;durP1;ratioP1;P2;durP2;ratioP2
4696;SDS011;2362;50.780;0.292;2023-08-01T00:00:16;21.40;;;5.35;;
4696;SDS011;2362;50.780;0.292;2023-08-01T00:02:41;17.58;;;6.03;;
4696;SDS011;2362;50.780;0.292;2023-08-01T00:05:07;14.85;;;5.50;;
4696;SDS011;2362;50.780;0.292;2023-08-01T00:07:33;17.20;;;6.32;;
4696;SDS011;2362;50.780;0.292;2023-08-01T00:09:58;19.70;;;6.25;;
4696;SDS011;2362;50.780;0.292;2023-08-01T00:12:24;19.85;;;5.57;;
4696;SDS011;2362;50.780;0.292;2023-08-01T00:14:50;12.57;;;5.25;;
4696;SDS011;2362;50.780;0.292;2023-08-01T00:17:16;15.77;;;5.88;;
4696;SDS011;2362;50.780;0.292;2023-08-01T00:19:41;22.10;;;5.70;;
4696;SDS011;2362;50.780;0.292;2023-08-01T00:22:07;20.20;;;6.35;;
4696;SDS011;2362;50.780;0.292;2023-08-01T00:24:32;23.17;;;6.30;;
4696;SDS011;2362;50.780;0.292;2023-08-01T00:26:58;26.30;;;6.88;;
4696;SDS011;2362;50.780;0.292;2023-08-01T00:29:24;20.38;;;7.22;;
4696;SDS011;2362;50.780;0.292;2023-08-01T00:31:49;15.18;;;6.32;;
4696;SDS011;2362;50.780;0.292;2023-08-01T00:34:15;16.63;;;7.00;;
4696;SDS011;2362;50.780;0.292;2023-08-01T00:36:40;30.13;;;6.45;;
4696;SDS011;2362;50.780;0.292;2023-08-01T00:39:06;22.10;;;6.63;;
4696;SDS011;2362;50.780;0.292;2023-08-01T00:41:32;28.88;;;7.43;;
4696;SDS011;2362;50.780;0.292;2023-08-01T00:43:57;15.20;;;7.63;;
4696;SDS011;2362;50.780;0.292;2023-08-01T00:46:23;26.10;;;6.53;;
4696;SDS011;2362;50.780;0.292;2023-08-01T00:48:49;23.15;;;7.07;;
4696;SDS011;2362;50.780;0.292;2023-08-01T00:51:15;22.65;;;7.80;;
4696;SDS011;2362;50.780;0.292;2023-08-01T00:53:43;22.30;;;7.45;;
4696;SDS011;2362;50.780;0.292;2023-08-01T00:56:10;23.10;;;6.72;;
4696;SDS011;2362;50.780;0.292;2023-08-01T00:58:36;33.78;;;7.43;;
4696;SDS011;2362;50.780;0.292;2023-08-01T01:01:02;24.08;;;6.30;;
4696;SDS011;2362;50.780;0.292;2023-08-01T01:03:28;24.08;;;6.88;;
4696;SDS011;2362;50.780;0.292;2023-08-01T01:06:01;24.83;;;7.22;;
4696;SDS011;2362;50.780;0.292;2023-08-01T01:08:33;21.55;;;6.47;;
4696;SDS011;2362;50.780;0.292;2023-08-01T01:10:59;28.38;;;8.25;;
4696;SDS011;2362;50.780;0.292;2023-08-01T01:13:25;29.52;;;7.35;;
4696;SDS011;2362;50.780;0.292;2023-08-01T01:15:50;29.67;;;6.88;;
4696;SDS011;2362;50.780;0.292;2023-08-01T01:18:16;43.95;;;7.97;;
4696;SDS011;2362;50.780;0.292;2023-08-01T01:20:41;25.05;;;7.85;;
4696;SDS011;2362;50.780;0.292;2023-08-01T01:23:07;20.50;;;6.45;;
4696;SDS011;2362;50.780;0.292;2023-08-01T01:25:34;21.17;;;7.05;;
4696;SDS011;2362;50.780;0.292;2023-08-01T01:28:01;25.40;;;6.82;;
4696;SDS011;2362;50.780;0.292;2023-08-01T01:30:30;22.30;;;7.20;;
4696;SDS011;2362;50.780;0.292;2023-08-01T01:32:58;28.60;;;6.97;;
4696;SDS011;2362;50.780;0.292;2023-08-01T01:35:24;22.13;;;7.13;;
4696;SDS011;2362;50.780;0.292;2023-08-01T01:37:50;24.17;;;7.68;;
4696;SDS011;2362;50.780;0.292;2023-08-01T01:40:16;28.30;;;7.55;;
4696;SDS011;2362;50.780;0.292;2023-08-01T01:42:41;25.98;;;6.00;;
4696;SDS011;2362;50.780;0.292;2023-08-01T01:45:07;36.03;;;7.38;;
4696;SDS011;2362;50.780;0.292;2023-08-01T01:47:33;25.73;;;7.40;;
4696;SDS011;2362;50.780;0.292;2023-08-01T01:49:59;25.60;;;6.43;;
4696;SDS011;2362;50.780;0.292;2023-08-01T01:52:24;15.57;;;5.28;;
4696;SDS011;2362;50.780;0.292;2023-08-01T01:54:50;27.65;;;7.25;;
4696;SDS011;2362;50.780;0.292;2023-08-01T01:57:15;36.75;;;5.78;;
4696;SDS011;2362;50.780;0.292;2023-08-01T01:59:41;19.23;;;4.78;;
4696;SDS011;2362;50.780;0.292;2023-08-01T02:02:06;34.10;;;6.85;;
4696;SDS011;2362;50.780;0.292;2023-08-01T02:04:32;32.55;;;6.40;;
4696;SDS011;2362;50.780;0.292;2023-08-01T02:06:58;16.48;;;6.10;;
4696;SDS011;2362;50.780;0.292;2023-08-01T02:09:23;36.00;;;6.10;;
4696;SDS011;2362;50.780;0.292;2023-08-01T02:11:49;22.67;;;5.47;;
4696;SDS011;2362;50.780;0.292;2023-08-01T02:14:15;20.88;;;5.45;;
4696;SDS011;2362;50.780;0.292;2023-08-01T02:16:41;29.38;;;5.53;;
4696;SDS011;2362;50.780;0.292;2023-08-01T02:19:06;25.48;;;5.93;;
4696;SDS011;2362;50.780;0.292;2023-08-01T02:21:32;27.33;;;5.97;;
4696;SDS011;2362;50.780;0.292;2023-08-01T02:23:58;28.40;;;5.60;;
4696;SDS011;2362;50.780;0.292;2023-08-01T02:26:23;37.17;;;7.40;;
4696;SDS011;2362;50.780;0.292;2023-08-01T02:28:49;26.17;;;5.13;;
4696;SDS011;2362;50.780;0.292;2023-08-01T02:31:15;29.55;;;5.72;;
4696;SDS011;2362;50.780;0.292;2023-08-01T02:33:41;30.42;;;5.72;;
4696;SDS011;2362;50.780;0.292;2023-08-01T02:36:07;20.00;;;5.53;;
4696;SDS011;2362;50.780;0.292;2023-08-01T02:38:33;31.35;;;5.47;;
4696;SDS011;2362;50.780;0.292;2023-08-01T02:40:58;36.13;;;5.70;;
4696;SDS011;2362;50.780;0.292;2023-08-01T02:43:24;34.60;;;6.80;;
4696;SDS011;2362;50.780;0.292;2023-08-01T02:45:50;36.70;;;5.93;;
4696;SDS011;2362;50.780;0.292;2023-08-01T02:48:15;24.98;;;5.93;;
4696;SDS011;2362;50.780;0.292;2023-08-01T02:50:41;26.52;;;5.18;;
4696;SDS011;2362;50.780;0.292;2023-08-01T02:53:06;34.50;;;5.53;;
4696;SDS011;2362;50.780;0.292;2023-08-01T02:55:32;28.45;;;5.60;;
4696;SDS011;2362;50.780;0.292;2023-08-01T02:57:58;36.17;;;5.57;;
4696;SDS011;2362;50.780;0.292;2023-08-01T03:00:23;40.78;;;7.45;;
4696;SDS011;2362;50.780;0.292;2023-08-01T03:02:50;28.60;;;5.63;;
4696;SDS011;2362;50.780;0.292;2023-08-01T03:05:16;39.30;;;6.40;;
4696;SDS011;2362;50.780;0.292;2023-08-01T03:07:42;37.28;;;5.72;;
4696;SDS011;2362;50.780;0.292;2023-08-01T03:10:07;30.35;;;6.32;;
4696;SDS011;2362;50.780;0.292;2023-08-01T03:12:34;38.63;;;6.63;;
4696;SDS011;2362;50.780;0.292;2023-08-01T03:15:00;33.40;;;6.63;;
4696;SDS011;2362;50.780;0.292;2023-08-01T03:17:26;30.23;;;6.13;;
4696;SDS011;2362;50.780;0.292;2023-08-01T03:19:51;35.28;;;7.03;;
4696;SDS011;2362;50.780;0.292;2023-08-01T03:22:17;29.10;;;6.90;;
4696;SDS011;2362;50.780;0.292;2023-08-01T03:24:43;35.30;;;6.40;;
4696;SDS011;2362;50.780;0.292;2023-08-01T03:27:08;51.20;;;6.88;;
4696;SDS011;2362;50.780;0.292;2023-08-01T03:29:34;42.15;;;7.22;;
4696;SDS011;2362;50.780;0.292;2023-08-01T03:32:00;44.08;;;7.05;;
4696;SDS011;2362;50.780;0.292;2023-08-01T03:34:25;33.67;;;7.03;;
4696;SDS011;2362;50.780;0.292;2023-08-01T03:36:52;42.42;;;6.80;;
4696;SDS011;2362;50.780;0.292;2023-08-01T03:39:17;23.90;;;6.18;;
4696;SDS011;2362;50.780;0.292;2023-08-01T03:41:43;33.25;;;6.20;;
4696;SDS011;2362;50.780;0.292;2023-08-01T03:44:09;30.83;;;6.95;;
4696;SDS011;2362;50.780;0.292;2023-08-01T03:46:34;36.55;;;6.95;;
4696;SDS011;2362;50.780;0.292;2023-08-01T03:49:00;40.90;;;6.50;;
4696;SDS011;2362;50.780;0.292;2023-08-01T03:51:26;38.05;;;6.55;;
4696;SDS011;2362;50.780;0.292;2023-08-01T03:53:51;30.08;;;5.38;;
4696;SDS011;2362;50.780;0.292;2023-08-01T03:56:17;28.35;;;6.10;;
4696;SDS011;2362;50.780;0.292;2023-08-01T03:58:42;34.30;;;7.20;;
4696;SDS011;2362;50.780;0.292;2023-08-01T04:01:08;32.97;;;7.10;;
4696;SDS011;2362;50.780;0.292;2023-08-01T04:03:34;43.38;;;7.00;;
4696;SDS011;2362;50.780;0.292;2023-08-01T04:06:00;38.70;;;5.95;;
4696;SDS011;2362;50.780;0.292;2023-08-01T04:08:25;37.85;;;6.28;;
4696;SDS011;2362;50.780;0.292;2023-08-01T04:10:51;44.05;;;6.07;;
4696;SDS011;2362;50.780;0.292;2023-08-01T04:13:16;25.25;;;5.60;;
4696;SDS011;2362;50.780;0.292;2023-08-01T04:15:42;29.20;;;5.13;;
4696;SDS011;2362;50.780;0.292;2023-08-01T04:18:08;33.72;;;5.45;;
4696;SDS011;2362;50.780;0.292;2023-08-01T04:20:33;26.05;;;4.85;;
4696;SDS011;2362;50.780;0.292;2023-08-01T04:22:59;27.75;;;4.85;;
4696;SDS011;2362;50.780;0.292;2023-08-01T04:25:25;24.67;;;4.25;;
4696;SDS011;2362;50.780;0.292;2023-08-01T04:27:52;24.20;;;4.50;;
4696;SDS011;2362;50.780;0.292;2023-08-01T04:30:18;30.75;;;4.45;;
4696;SDS011;2362;50.780;0.292;2023-08-01T04:32:44;15.25;;;3.42;;
4696;SDS011;2362;50.780;0.292;2023-08-01T04:35:10;15.52;;;3.65;;
4696;SDS011;2362;50.780;0.292;2023-08-01T04:37:35;25.88;;;3.83;;
4696;SDS011;2362;50.780;0.292;2023-08-01T04:40:01;20.90;;;4.22;;
4696;SDS011;2362;50.780;0.292;2023-08-01T04:42:27;25.65;;;5.63;;
4696;SDS011;2362;50.780;0.292;2023-08-01T04:44:54;32.53;;;4.15;;
4696;SDS011;2362;50.780;0.292;2023-08-01T04:47:20;23.85;;;4.05;;
4696;SDS011;2362;50.780;0.292;2023-08-01T04:49:46;25.45;;;4.60;;
4696;SDS011;2362;50.780;0.292;2023-08-01T04:52:12;21.25;;;4.40;;
4696;SDS011;2362;50.780;0.292;2023-08-01T04:54:37;24.83;;;4.68;;
4696;SDS011;2362;50.780;0.292;2023-08-01T04:57:03;27.98;;;5.10;;
4696;SDS011;2362;50.780;0.292;2023-08-01T04:59:29;25.95;;;4.43;;
4696;SDS011;2362;50.780;0.292;2023-08-01T05:01:55;23.73;;;4.40;;
4696;SDS011;2362;50.780;0.292;2023-08-01T05:04:20;32.60;;;5.50;;
4696;SDS011;2362;50.780;0.292;2023-08-01T05:06:46;27.95;;;5.32;;
4696;SDS011;2362;50.780;0.292;2023-08-01T05:09:12;29.38;;;6.03;;
4696;SDS011;2362;50.780;0.292;2023-08-01T05:11:37;23.45;;;5.07;;
4696;SDS011;2362;50.780;0.292;2023-08-01T05:14:03;25.85;;;4.60;;
4696;SDS011;2362;50.780;0.292;2023-08-01T05:16:29;21.35;;;5.47;;
4696;SDS011;2362;50.780;0.292;2023-08-01T05:18:54;27.83;;;5.38;;
4696;SDS011;2362;50.780;0.292;2023-08-01T05:21:20;28.30;;;4.60;;
4696;SDS011;2362;50.780;0.292;2023-08-01T05:23:45;32.25;;;5.70;;
4696;SDS011;2362;50.780;0.292;2023-08-01T05:26:11;29.60;;;4.63;;
4696;SDS011;2362;50.780;0.292;2023-08-01T05:28:37;22.08;;;4.60;;
4696;SDS011;2362;50.780;0.292;2023-08-01T05:31:02;24.58;;;4.93;;
4696;SDS011;2362;50.780;0.292;2023-08-01T05:33:28;22.15;;;4.70;;
4696;SDS011;2362;50.780;0.292;2023-08-01T05:35:54;27.77;;;4.90;;
4696;SDS011;2362;50.780;0.292;2023-08-01T05:38:19;25.83;;;5.03;;
4696;SDS011;2362;50.780;0.292;2023-08-01T05:40:45;28.58;;;5.57;;
4696;SDS011;2362;50.780;0.292;2023-08-01T05:43:11;19.38;;;4.35;;
4696;SDS011;2362;50.780;0.292;2023-08-01T05:45:36;19.63;;;4.22;;
4696;SDS011;2362;50.780;0.292;2023-08-01T05:48:02;21.23;;;4.45;;
4696;SDS011;2362;50.780;0.292;2023-08-01T05:50:28;19.42;;;3.90;;
4696;SDS011;2362;50.780;0.292;2023-08-01T05:52:54;28.45;;;4.88;;
4696;SDS011;2362;50.780;0.292;2023-08-01T05:55:19;25.98;;;4.88;;
4696;SDS011;2362;50.780;0.292;2023-08-01T05:57:46;24.15;;;4.22;;
4696;SDS011;2362;50.780;0.292;2023-08-01T06:00:11;25.55;;;4.22;;
4696;SDS011;2362;50.780;0.292;2023-08-01T06:02:38;28.65;;;4.38;;
4696;SDS011;2362;50.780;0.292;2023-08-01T06:05:03;21.58;;;4.43;;
4696;SDS011;2362;50.780;0.292;2023-08-01T06:07:29;23.33;;;4.50;;
4696;SDS011;2362;50.780;0.292;2023-08-01T06:09:55;20.77;;;4.10;;
4696;SDS011;2362;50.780;0.292;2023-08-01T06:12:20;33.75;;;5.05;;
4696;SDS011;2362;50.780;0.292;2023-08-01T06:14:46;23.13;;;4.07;;
4696;SDS011;2362;50.780;0.292;2023-08-01T06:17:13;22.15;;;4.88;;
4696;SDS011;2362;50.780;0.292;2023-08-01T06:19:39;21.73;;;4.68;;
4696;SDS011;2362;50.780;0.292;2023-08-01T06:22:05;19.45;;;4.38;;
4696;SDS011;2362;50.780;0.292;2023-08-01T06:24:31;20.33;;;4.00;;
4696;SDS011;2362;50.780;0.292;2023-08-01T06:26:56;19.80;;;3.80;;
4696;SDS011;2362;50.780;0.292;2023-08-01T06:29:22;27.70;;;3.70;;
4696;SDS011;2362;50.780;0.292;2023-08-01T06:31:49;19.83;;;4.53;;
4696;SDS011;2362;50.780;0.292;2023-08-01T06:34:15;21.23;;;5.10;;
4696;SDS011;2362;50.780;0.292;2023-08-01T06:36:40;24.48;;;4.63;;
4696;SDS011;2362;50.780;0.292;2023-08-01T06:39:06;17.83;;;4.05;;
4696;SDS011;2362;50.780;0.292;2023-08-01T06:41:32;25.45;;;5.22;;
4696;SDS011;2362;50.780;0.292;2023-08-01T06:43:58;18.17;;;3.58;;
4696;SDS011;2362;50.780;0.292;2023-08-01T06:46:23;16.92;;;4.22;;
4696;SDS011;2362;50.780;0.292;2023-08-01T06:48:49;39.22;;;4.70;;
4696;SDS011;2362;50.780;0.292;2023-08-01T06:51:15;23.02;;;3.90;;
4696;SDS011;2362;50.780;0.292;2023-08-01T06:53:40;21.20;;;4.20;;
4696;SDS011;2362;50.780;0.292;2023-08-01T06:56:06;26.83;;;4.10;;
4696;SDS011;2362;50.780;0.292;2023-08-01T06:58:32;29.25;;;5.13;;
4696;SDS011;2362;50.780;0.292;2023-08-01T07:00:57;15.35;;;3.55;;
4696;SDS011;2362;50.780;0.292;2023-08-01T07:03:23;17.70;;;4.15;;
4696;SDS011;2362;50.780;0.292;2023-08-01T07:05:48;27.80;;;5.68;;
4696;SDS011;2362;50.780;0.292;2023-08-01T07:08:14;19.35;;;3.60;;
4696;SDS011;2362;50.780;0.292;2023-08-01T07:10:40;24.70;;;5.20;;
4696;SDS011;2362;50.780;0.292;2023-08-01T07:13:05;19.48;;;4.00;;
4696;SDS011;2362;50.780;0.292;2023-08-01T07:15:31;28.38;;;4.97;;
4696;SDS011;2362;50.780;0.292;2023-08-01T07:17:57;24.23;;;5.03;;
4696;SDS011;2362;50.780;0.292;2023-08-01T07:20:23;18.67;;;4.60;;
4696;SDS011;2362;50.780;0.292;2023-08-01T07:22:49;22.50;;;4.57;;
4696;SDS011;2362;50.780;0.292;2023-08-01T07:25:14;19.27;;;4.53;;
4696;SDS011;2362;50.780;0.292;2023-08-01T07:27:41;24.23;;;4.15;;
4696;SDS011;2362;50.780;0.292;2023-08-01T07:30:07;28.17;;;4.80;;
4696;SDS011;2362;50.780;0.292;2023-08-01T07:32:35;27.45;;;4.57;;
4696;SDS011;2362;50.780;0.292;2023-08-01T07:35:02;20.25;;;4.35;;
4696;SDS011;2362;50.780;0.292;2023-08-01T07:37:28;19.35;;;3.88;;
4696;SDS011;2362;50.780;0.292;2023-08-01T07:39:54;20.10;;;3.83;;
4696;SDS011;2362;50.780;0.292;2023-08-01T07:42:21;27.02;;;4.30;;
4696;SDS011;2362;50.780;0.292;2023-08-01T07:44:47;15.90;;;3.38;;
4696;SDS011;2362;50.780;0.292;2023-08-01T07:47:12;21.98;;;3.88;;
4696;SDS011;2362;50.780;0.292;2023-08-01T07:49:38;15.38;;;3.13;;
4696;SDS011;2362;50.780;0.292;2023-08-01T07:52:04;15.82;;;3.05;;
4696;SDS011;2362;50.780;0.292;2023-08-01T07:54:30;14.90;;;3.00;;
4696;SDS011;2362;50.780;0.292;2023-08-01T07:56:55;15.35;;;2.95;;
4696;SDS011;2362;50.780;0.292;2023-08-01T07:59:21;15.07;;;3.60;;
4696;SDS011;2362;50.780;0.292;2023-08-01T08:01:46;15.75;;;3.10;;
4696;SDS011;2362;50.780;0.292;2023-08-01T08:04:13;21.02;;;4.30;;
4696;SDS011;2362;50.780;0.292;2023-08-01T08:06:39;11.88;;;2.65;;
4696;SDS011;2362;50.780;0.292;2023-08-01T08:09:05;15.63;;;3.25;;
4696;SDS011;2362;50.780;0.292;2023-08-01T08:11:31;11.95;;;2.60;;
4696;SDS011;2362;50.780;0.292;2023-08-01T08:13:58;13.05;;;3.03;;
4696;SDS011;2362;50.780;0.292;2023-08-01T08:16:24;8.30;;;2.30;;
4696;SDS011;2362;50.780;0.292;2023-08-01T08:18:50;11.98;;;2.47;;
4696;SDS011;2362;50.780;0.292;2023-08-01T08:21:16;14.98;;;2.72;;
4696;SDS011;2362;50.780;0.292;2023-08-01T08:23:42;16.55;;;2.63;;
4696;SDS011;2362;50.780;0.292;2023-08-01T08:26:07;14.82;;;3.35;;
4696;SDS011;2362;50.780;0.292;2023-08-01T08:28:33;14.45;;;3.08;;
4696;SDS011;2362;50.780;0.292;2023-08-01T08:30:59;14.63;;;2.92;;
4696;SDS011;2362;50.780;0.292;2023-08-01T08:33:27;20.67;;;2.85;;
4696;SDS011;2362;50.780;0.292;2023-08-01T08:35:53;18.55;;;3.00;;
4696;SDS011;2362;50.780;0.292;2023-08-01T08:38:18;12.95;;;2.97;;
4696;SDS011;2362;50.780;0.292;2023-08-01T08:43:33;11.48;;;2.85;;
4696;SDS011;2362;50.780;0.292;2023-08-01T08:46:00;14.55;;;3.55;;
4696;SDS011;2362;50.780;0.292;2023-08-01T08:48:28;11.65;;;2.95;;
4696;SDS011;2362;50.780;0.292;2023-08-01T08:50:54;20.75;;;3.67;;
4696;SDS011;2362;50.780;0.292;2023-08-01T08:53:24;13.60;;;2.92;;
4696;SDS011;2362;50.780;0.292;2023-08-01T08:55:50;15.02;;;3.25;;
4696;SDS011;2362;50.780;0.292;2023-08-01T08:58:16;24.17;;;3.63;;
4696;SDS011;2362;50.780;0.292;2023-08-01T09:00:42;18.00;;;3.40;;
4696;SDS011;2362;50.780;0.292;2023-08-01T09:03:09;12.65;;;2.67;;
4696;SDS011;2362;50.780;0.292;2023-08-01T09:05:43;16.75;;;3.80;;
4696;SDS011;2362;50.780;0.292;2023-08-01T09:08:18;18.38;;;4.35;;
4696;SDS011;2362;50.780;0.292;2023-08-01T09:10:45;14.27;;;3.33;;
4696;SDS011;2362;50.780;0.292;2023-08-01T09:13:11;22.33;;;4.20;;
4696;SDS011;2362;50.780;0.292;2023-08-01T09:15:37;16.48;;;3.00;;
4696;SDS011;2362;50.780;0.292;2023-08-01T09:18:05;16.10;;;4.10;;
4696;SDS011;2362;50.780;0.292;2023-08-01T09:20:44;16.10;;;4.00;;
4696;SDS011;2362;50.780;0.292;2023-08-01T09:23:11;17.58;;;3.47;;
4696;SDS011;2362;50.780;0.292;2023-08-01T09:25:38;32.83;;;4.20;;
4696;SDS011;2362;50.780;0.292;2023-08-01T09:30:45;15.40;;;3.35;;
4696;SDS011;2362;50.780;0.292;2023-08-01T09:33:16;22.30;;;4.28;;
4696;SDS011;2362;50.780;0.292;2023-08-01T09:35:41;23.48;;;4.60;;
4696;SDS011;2362;50.780;0.292;2023-08-01T09:38:09;21.38;;;3.50;;
4696;SDS011;2362;50.780;0.292;2023-08-01T09:40:37;14.88;;;2.95;;
4696;SDS011;2362;50.780;0.292;2023-08-01T09:43:03;20.98;;;3.92;;
4696;SDS011;2362;50.780;0.292;2023-08-01T09:45:29;18.17;;;3.95;;
4696;SDS011;2362;50.780;0.292;2023-08-01T09:47:54;18.73;;;4.10;;
4696;SDS011;2362;50.780;0.292;2023-08-01T09:50:21;15.45;;;3.83;;
4696;SDS011;2362;50.780;0.292;2023-08-01T09:52:48;18.08;;;4.03;;
4696;SDS011;2362;50.780;0.292;2023-08-01T09:55:31;15.07;;;3.67;;
4696;SDS011;2362;50.780;0.292;2023-08-01T09:57:58;21.73;;;4.43;;
4696;SDS011;2362;50.780;0.292;2023-08-01T10:00:28;23.67;;;4.20;;
4696;SDS011;2362;50.780;0.292;2023-08-01T10:02:55;18.92;;;4.28;;
4696;SDS011;2362;50.780;0.292;2023-08-01T10:05:25;33.35;;;6.45;;
4696;SDS011;2362;50.780;0.292;2023-08-01T10:08:00;25.58;;;4.38;;
4696;SDS011;2362;50.780;0.292;2023-08-01T10:10:27;25.98;;;4.47;;
4696;SDS011;2362;50.780;0.292;2023-08-01T10:12:54;20.52;;;4.32;;
4696;SDS011;2362;50.780;0.292;2023-08-01T10:15:23;22.00;;;4.47;;
4696;SDS011;2362;50.780;0.292;2023-08-01T10:17:50;21.63;;;3.75;;
4696;SDS011;2362;50.780;0.292;2023-08-01T10:20:16;20.90;;;4.72;;
4696;SDS011;2362;50.780;0.292;2023-08-01T10:22:44;34.30;;;5.47;;
4696;SDS011;2362;50.780;0.292;2023-08-01T10:25:09;25.27;;;5.10;;
4696;SDS011;2362;50.780;0.292;2023-08-01T10:27:36;26.38;;;5.30;;
4696;SDS011;2362;50.780;0.292;2023-08-01T10:30:03;16.70;;;4.18;;
4696;SDS011;2362;50.780;0.292;2023-08-01T10:32:33;15.68;;;4.03;;
4696;SDS011;2362;50.780;0.292;2023-08-01T10:35:03;21.77;;;3.85;;
4696;SDS011;2362;50.780;0.292;2023-08-01T10:37:45;23.30;;;4.30;;
4696;SDS011;2362;50.780;0.292;2023-08-01T10:40:14;16.42;;;3.25;;
4696;SDS011;2362;50.780;0.292;2023-08-01T10:42:40;20.38;;;4.22;;
4696;SDS011;2362;50.780;0.292;2023-08-01T10:45:08;21.67;;;4.93;;
4696;SDS011;2362;50.780;0.292;2023-08-01T10:47:46;22.90;;;3.95;;
4696;SDS011;2362;50.780;0.292;2023-08-01T10:50:13;35.72;;;4.38;;
4696;SDS011;2362;50.780;0.292;2023-08-01T10:52:40;25.30;;;4.47;;
4696;SDS011;2362;50.780;0.292;2023-08-01T10:55:07;25.50;;;4.28;;
4696;SDS011;2362;50.780;0.292;2023-08-01T10:57:34;29.70;;;4.85;;
4696;SDS011;2362;50.780;0.292;2023-08-01T11:00:02;27.80;;;4.78;;
4696;SDS011;2362;50.780;0.292;2023-08-01T11:02:34;21.95;;;5.15;;
4696;SDS011;2362;50.780;0.292;2023-08-01T11:05:06;20.75;;;4.55;;
4696;SDS011;2362;50.780;0.292;2023-08-01T11:07:33;36.45;;;5.32;;
4696;SDS011;2362;50.780;0.292;2023-08-01T11:10:09;23.52;;;4.68;;
4696;SDS011;2362;50.780;0.292;2023-08-01T11:12:39;24.73;;;3.92;;
4696;SDS011;2362;50.780;0.292;2023-08-01T11:15:06;33.10;;;5.60;;
4696;SDS011;2362;50.780;0.292;2023-08-01T11:17:41;21.83;;;3.70;;
4696;SDS011;2362;50.780;0.292;2023-08-01T11:20:11;30.13;;;4.18;;
4696;SDS011;2362;50.780;0.292;2023-08-01T11:22:37;18.50;;;4.03;;
4696;SDS011;2362;50.780;0.292;2023-08-01T11:25:13;32.00;;;4.78;;
4696;SDS011;2362;50.780;0.292;2023-08-01T11:27:39;14.38;;;3.03;;
4696;SDS011;2362;50.780;0.292;2023-08-01T11:30:05;23.60;;;4.57;;
4696;SDS011;2362;50.780;0.292;2023-08-01T11:32:38;23.85;;;3.97;;
4696;SDS011;2362;50.780;0.292;2023-08-01T11:35:03;20.05;;;4.45;;
4696;SDS011;2362;50.780;0.292;2023-08-01T11:37:30;18.02;;;4.05;;
4696;SDS011;2362;50.780;0.292;2023-08-01T11:39:56;15.85;;;3.72;;
4696;SDS011;2362;50.780;0.292;2023-08-01T11:42:22;19.42;;;4.10;;
4696;SDS011;2362;50.780;0.292;2023-08-01T11:44:48;25.75;;;3.28;;
4696;SDS011;2362;50.780;0.292;2023-08-01T11:47:14;20.55;;;3.42;;
4696;SDS011;2362;50.780;0.292;2023-08-01T11:49:45;12.45;;;2.45;;
4696;SDS011;2362;50.780;0.292;2023-08-01T11:52:28;14.70;;;2.85;;
4696;SDS011;2362;50.780;0.292;2023-08-01T11:54:54;13.15;;;2.33;;
4696;SDS011;2362;50.780;0.292;2023-08-01T11:57:23;13.30;;;3.20;;
4696;SDS011;2362;50.780;0.292;2023-08-01T11:59:54;13.35;;;2.90;;
4696;SDS011;2362;50.780;0.292;2023-08-01T12:02:21;21.92;;;3.97;;
4696;SDS011;2362;50.780;0.292;2023-08-01T12:04:51;24.08;;;4.40;;
4696;SDS011;2362;50.780;0.292;2023-08-01T12:07:18;25.05;;;3.75;;
4696;SDS011;2362;50.780;0.292;2023-08-01T12:09:44;18.50;;;4.25;;
4696;SDS011;2362;50.780;0.292;2023-08-01T12:12:19;31.70;;;4.72;;
4696;SDS011;2362;50.780;0.292;2023-08-01T12:14:45;32.13;;;5.00;;
4696;SDS011;2362;50.780;0.292;2023-08-01T12:17:10;26.33;;;5.25;;
4696;SDS011;2362;50.780;0.292;2023-08-01T12:19:36;34.00;;;5.95;;
4696;SDS011;2362;50.780;0.292;2023-08-01T12:22:02;33.95;;;6.05;;
4696;SDS011;2362;50.780;0.292;2023-08-01T12:24:27;29.80;;;5.72;;
4696;SDS011;2362;50.780;0.292;2023-08-01T12:26:53;35.05;;;5.72;;
4696;SDS011;2362;50.780;0.292;2023-08-01T12:29:19;39.67;;;6.50;;
4696;SDS011;2362;50.780;0.292;2023-08-01T12:31:45;37.85;;;7.90;;
4696;SDS011;2362;50.780;0.292;2023-08-01T12:34:11;31.88;;;6.82;;
4696;SDS011;2362;50.780;0.292;2023-08-01T12:36:36;37.00;;;6.65;;
4696;SDS011;2362;50.780;0.292;2023-08-01T12:39:02;48.45;;;7.25;;
4696;SDS011;2362;50.780;0.292;2023-08-01T12:41:28;37.83;;;7.10;;
4696;SDS011;2362;50.780;0.292;2023-08-01T12:43:54;43.33;;;6.55;;
4696;SDS011;2362;50.780;0.292;2023-08-01T12:46:19;40.45;;;6.07;;
4696;SDS011;2362;50.780;0.292;2023-08-01T12:48:45;39.95;;;7.15;;
4696;SDS011;2362;50.780;0.292;2023-08-01T12:51:11;43.60;;;7.57;;
4696;SDS011;2362;50.780;0.292;2023-08-01T12:53:39;40.40;;;6.30;;
4696;SDS011;2362;50.780;0.292;2023-08-01T12:56:05;35.85;;;6.68;;
4696;SDS011;2362;50.780;0.292;2023-08-01T12:58:30;34.53;;;5.82;;
4696;SDS011;2362;50.780;0.292;2023-08-01T13:00:57;40.70;;;8.00;;
4696;SDS011;2362;50.780;0.292;2023-08-01T13:03:22;37.75;;;6.95;;
4696;SDS011;2362;50.780;0.292;2023-08-01T13:05:48;32.45;;;6.20;;
4696;SDS011;2362;50.780;0.292;2023-08-01T13:08:14;28.20;;;5.75;;
4696;SDS011;2362;50.780;0.292;2023-08-01T13:10:39;21.00;;;5.53;;
4696;SDS011;2362;50.780;0.292;2023-08-01T13:13:06;42.17;;;6.32;;
4696;SDS011;2362;50.780;0.292;2023-08-01T13:15:32;37.90;;;7.75;;
4696;SDS011;2362;50.780;0.292;2023-08-01T13:17:58;31.35;;;6.88;;
4696;SDS011;2362;50.780;0.292;2023-08-01T13:20:24;35.80;;;6.88;;
4696;SDS011;2362;50.780;0.292;2023-08-01T13:22:50;40.67;;;7.65;;
4696;SDS011;2362;50.780;0.292;2023-08-01T13:25:16;43.95;;;6.75;;
4696;SDS011;2362;50.780;0.292;2023-08-01T13:27:42;39.33;;;7.68;;
4696;SDS011;2362;50.780;0.292;2023-08-01T13:30:08;43.25;;;5.80;;
4696;SDS011;2362;50.780;0.292;2023-08-01T13:32:35;41.35;;;7.18;;
4696;SDS011;2362;50.780;0.292;2023-08-01T13:35:01;40.95;;;7.75;;
4696;SDS011;2362;50.780;0.292;2023-08-01T13:37:27;45.85;;;8.43;;
4696;SDS011;2362;50.780;0.292;2023-08-01T13:39:57;49.72;;;6.95;;
4696;SDS011;2362;50.780;0.292;2023-08-01T13:42:23;35.78;;;7.10;;
4696;SDS011;2362;50.780;0.292;2023-08-01T13:44:49;29.42;;;6.38;;
4696;SDS011;2362;50.780;0.292;2023-08-01T13:47:14;30.45;;;5.57;;
4696;SDS011;2362;50.780;0.292;2023-08-01T13:49:40;35.38;;;5.78;;
4696;SDS011;2362;50.780;0.292;2023-08-01T13:52:06;35.83;;;7.28;;
4696;SDS011;2362;50.780;0.292;2023-08-01T13:54:31;43.08;;;7.00;;
4696;SDS011;2362;50.780;0.292;2023-08-01T13:56:57;35.17;;;6.40;;
4696;SDS011;2362;50.780;0.292;2023-08-01T13:59:23;50.58;;;8.07;;
4696;SDS011;2362;50.780;0.292;2023-08-01T14:01:48;36.65;;;6.10;;
4696;SDS011;2362;50.780;0.292;2023-08-01T14:04:14;40.33;;;6.55;;
4696;SDS011;2362;50.780;0.292;2023-08-01T14:06:40;39.45;;;7.45;;
4696;SDS011;2362;50.780;0.292;2023-08-01T14:09:07;38.00;;;6.38;;
4696;SDS011;2362;50.780;0.292;2023-08-01T14:11:36;39.65;;;8.13;;
4696;SDS011;2362;50.780;0.292;2023-08-01T14:14:02;43.55;;;6.60;;
4696;SDS011;2362;50.780;0.292;2023-08-01T14:16:28;39.10;;;6.28;;
4696;SDS011;2362;50.780;0.292;2023-08-01T14:18:54;33.92;;;6.20;;
4696;SDS011;2362;50.780;0.292;2023-08-01T14:21:20;30.88;;;6.50;;
4696;SDS011;2362;50.780;0.292;2023-08-01T14:23:46;27.70;;;6.70;;
4696;SDS011;2362;50.780;0.292;2023-08-01T14:26:11;37.97;;;6.30;;
4696;SDS011;2362;50.780;0.292;2023-08-01T14:28:37;32.42;;;7.15;;
4696;SDS011;2362;50.780;0.292;2023-08-01T14:31:03;38.70;;;7.28;;
4696;SDS011;2362;50.780;0.292;2023-08-01T14:33:29;30.33;;;7.15;;
4696;SDS011;2362;50.780;0.292;2023-08-01T14:35:55;31.45;;;7.88;;
4696;SDS011;2362;50.780;0.292;2023-08-01T14:38:21;31.70;;;7.50;;
4696;SDS011;2362;50.780;0.292;2023-08-01T14:40:47;35.70;;;7.88;;
4696;SDS011;2362;50.780;0.292;2023-08-01T14:43:13;25.85;;;6.50;;
4696;SDS011;2362;50.780;0.292;2023-08-01T14:45:41;30.25;;;6.38;;
4696;SDS011;2362;50.780;0.292;2023-08-01T14:48:07;27.40;;;7.03;;
4696;SDS011;2362;50.780;0.292;2023-08-01T14:50:33;24.50;;;4.97;;
4696;SDS011;2362;50.780;0.292;2023-08-01T14:53:02;27.40;;;5.03;;
4696;SDS011;2362;50.780;0.292;2023-08-01T14:55:31;20.38;;;5.15;;
4696;SDS011;2362;50.780;0.292;2023-08-01T14:57:57;23.55;;;4.70;;
4696;SDS011;2362;50.780;0.292;2023-08-01T15:00:23;21.85;;;4.45;;